Hornafjordur Airport

Airport
ICAO code: 
BIHN
IATA Code: 
HFN
Summary
ICAO Region: 
NAT
Territory: 
Location: 
, Austurland
Serving: 
Hofn
Elevation: 
24 ft
Coordinates: 
Aerial View: 
64° 17' 44.002" N, 15° 13' 37.999" W
Metar
Observation
BIHN 081600Z 33002KT CAVOK M03/M06 Q0999
Station
Akurnes
Date/Time
2021-12-08 16:00:00
Wind direction
330°
Wind speed
02 kts
Lowest cloud amount
clouds and visibility OK
Temperature
-3°C
Dew point
-6°C
Humidity
79%
QNH
999 hPa
Weather condition
n/a

Runways

Designator Length Width Surface Rops
18/36 1500 45 BIT No/No
Airport map: 
Aerial View: 

SKYbrary Partners:

Safety knowledge contributed by: